Time;durP1;ratioP1;P1;durP2;ratioP2;P2;SDS_P1;SDS_P2;PMS_P1;PMS_P2;Temp;Humidity;BMP_temperature;BMP_pressure;BME280_temperature;BME280_humidity;BME280_pressure;Samples;Min_cycle;Max_cycle;Signal;HPM_P1;HPM_P2
2022/07/01 00:00:58;;;;;;;7.80;2.50;;;13.90;99.90;;;;;;5025105;28;20127;-72
2022/07/01 00:03:24;;;;;;;6.20;2.30;;;13.90;99.90;;;;;;5028683;28;20037;-72
2022/07/01 00:05:49;;;;;;;8.90;2.92;;;13.90;99.90;;;;;;5010507;28;20427;-72
2022/07/01 00:08:15;;;;;;;5.90;2.38;;;13.90;99.90;;;;;;5023195;28;20040;-72
2022/07/01 00:10:41;;;;;;;6.70;2.50;;;13.90;99.90;;;;;;5028251;28;20030;-72
2022/07/01 00:13:07;;;;;;;7.63;2.35;;;13.90;99.90;;;;;;5013101;28;20038;-72
2022/07/01 00:15:33;;;;;;;6.57;2.67;;;13.90;99.90;;;;;;4994638;28;20041;-73
2022/07/01 00:17:58;;;;;;;7.82;2.33;;;14.00;99.90;;;;;;5029737;28;20045;-72
2022/07/01 00:20:24;;;;;;;7.40;2.70;;;14.00;99.90;;;;;;5008840;28;20049;-72
2022/07/01 00:22:50;;;;;;;4.25;2.50;;;13.90;99.90;;;;;;5027324;28;20037;-73
2022/07/01 00:25:16;;;;;;;4.80;2.67;;;13.90;99.90;;;;;;5030836;28;20049;-72
2022/07/01 00:27:42;;;;;;;8.27;2.70;;;14.00;99.90;;;;;;5014815;28;20758;-72
2022/07/01 00:30:09;;;;;;;5.93;3.20;;;14.00;99.90;;;;;;5013383;28;20117;-72
2022/07/01 00:32:36;;;;;;;8.05;2.78;;;14.00;99.90;;;;;;5041679;28;20052;-72
2022/07/01 00:35:02;;;;;;;6.47;3.05;;;14.00;99.90;;;;;;5014737;28;20444;-72
2022/07/01 00:37:28;;;;;;;8.13;4.10;;;14.00;99.90;;;;;;5013972;28;20562;-72
2022/07/01 00:39:54;;;;;;;9.43;3.53;;;14.00;99.90;;;;;;5011658;28;20049;-72
2022/07/01 00:42:20;;;;;;;5.85;3.88;;;14.00;99.90;;;;;;5012544;28;20043;-72
2022/07/01 00:44:45;;;;;;;9.95;3.70;;;14.00;99.90;;;;;;5039105;28;20049;-72
2022/07/01 00:47:13;;;;;;;8.82;3.50;;;14.10;99.90;;;;;;5022410;28;20033;-72
2022/07/01 00:49:39;;;;;;;7.85;3.05;;;14.10;99.90;;;;;;5012252;28;20391;-73
2022/07/01 00:52:07;;;;;;;5.15;2.78;;;14.10;99.90;;;;;;5035132;28;20548;-73
2022/07/01 00:54:36;;;;;;;5.40;2.67;;;14.10;99.90;;;;;;5010152;28;20037;-73
2022/07/01 00:57:07;;;;;;;6.18;2.75;;;14.10;99.90;;;;;;5029123;28;20045;-73
2022/07/01 00:59:35;;;;;;;7.00;3.10;;;14.10;99.90;;;;;;5012996;28;20515;-73
2022/07/01 01:02:01;;;;;;;6.35;3.00;;;14.10;99.90;;;;;;5012902;28;20048;-73
2022/07/01 01:04:27;;;;;;;5.13;3.15;;;14.20;99.90;;;;;;5011517;28;20041;-72
2022/07/01 01:06:52;;;;;;;5.05;3.30;;;14.20;99.90;;;;;;5011790;28;20568;-73
2022/07/01 01:09:18;;;;;;;6.50;3.53;;;14.20;99.90;;;;;;5015750;28;20042;-72
2022/07/01 01:11:44;;;;;;;7.38;2.97;;;14.10;99.90;;;;;;5028574;28;20488;-72
2022/07/01 01:14:10;;;;;;;4.78;2.83;;;14.20;99.90;;;;;;4978283;28;20136;-73
2022/07/01 01:16:38;;;;;;;3.75;2.53;;;14.10;99.90;;;;;;5027614;28;20494;-73
2022/07/01 01:19:07;;;;;;;5.20;3.25;;;14.10;99.90;;;;;;5011931;28;20223;-73
2022/07/01 01:21:36;;;;;;;6.28;2.95;;;14.10;99.90;;;;;;5015974;28;20069;-73
2022/07/01 01:24:02;;;;;;;7.32;2.70;;;14.20;99.90;;;;;;5012025;28;20056;-72
2022/07/01 01:26:29;;;;;;;4.10;2.70;;;14.10;99.90;;;;;;5028252;28;20033;-73
2022/07/01 01:28:55;;;;;;;5.60;2.75;;;14.10;99.90;;;;;;5008664;28;20148;-73
2022/07/01 01:31:29;;;;;;;4.30;2.88;;;14.20;99.90;;;;;;5028283;28;20044;-73
2022/07/01 01:33:55;;;;;;;4.10;2.40;;;14.10;99.90;;;;;;5041970;28;20075;-73
2022/07/01 01:36:21;;;;;;;3.58;2.30;;;14.20;99.90;;;;;;5023910;28;20372;-73
2022/07/01 01:38:47;;;;;;;3.90;2.22;;;14.10;99.90;;;;;;5011485;28;20049;-73
2022/07/01 01:41:13;;;;;;;3.28;2.15;;;14.20;99.90;;;;;;5009962;28;20200;-73
2022/07/01 01:43:38;;;;;;;3.75;2.20;;;14.10;99.90;;;;;;5027734;28;20040;-73
2022/07/01 01:46:04;;;;;;;3.80;2.40;;;14.10;99.90;;;;;;5011786;28;20361;-73
2022/07/01 01:48:31;;;;;;;3.58;2.55;;;14.10;99.90;;;;;;5011483;28;20506;-72
2022/07/01 01:50:57;;;;;;;3.00;2.22;;;14.20;99.90;;;;;;5011641;28;20037;-73
2022/07/01 01:53:23;;;;;;;4.55;2.72;;;14.10;99.90;;;;;;5028192;28;20130;-73
2022/07/01 01:55:49;;;;;;;2.42;2.22;;;14.10;99.90;;;;;;5012284;28;20037;-72
2022/07/01 01:58:15;;;;;;;4.47;2.15;;;14.10;99.90;;;;;;5011328;28;20119;-73
2022/07/01 02:00:41;;;;;;;2.83;2.10;;;14.10;99.90;;;;;;4987425;28;20229;-73
2022/07/01 02:03:06;;;;;;;2.55;2.03;;;14.10;99.90;;;;;;5022467;28;20399;-73
2022/07/01 02:05:33;;;;;;;2.20;1.80;;;14.00;99.90;;;;;;5000468;28;20447;-73
2022/07/01 02:07:59;;;;;;;4.68;2.00;;;14.00;99.90;;;;;;5011805;28;20045;-72
2022/07/01 02:10:25;;;;;;;3.28;1.98;;;14.00;99.90;;;;;;5012633;28;20056;-73
2022/07/01 02:12:50;;;;;;;3.55;2.33;;;14.00;99.90;;;;;;5012737;28;20088;-73
2022/07/01 02:15:16;;;;;;;5.38;2.17;;;14.00;99.90;;;;;;5010506;28;20048;-73
2022/07/01 02:17:42;;;;;;;6.28;2.40;;;14.00;99.90;;;;;;5010726;28;20068;-73
2022/07/01 02:20:08;;;;;;;2.22;1.88;;;14.00;99.90;;;;;;4993946;28;20037;-73
2022/07/01 02:22:34;;;;;;;4.90;2.33;;;14.00;99.90;;;;;;5033679;28;20033;-73
2022/07/01 02:25:00;;;;;;;3.60;1.92;;;14.00;99.90;;;;;;5027395;28;20579;-73
2022/07/01 02:27:26;;;;;;;7.82;2.30;;;14.00;99.90;;;;;;5027081;28;20116;-73
2022/07/01 02:29:51;;;;;;;5.18;2.50;;;14.00;99.90;;;;;;5025577;28;20047;-73
2022/07/01 02:32:18;;;;;;;4.97;2.80;;;14.00;99.90;;;;;;4986735;28;20561;-73
2022/07/01 02:34:44;;;;;;;6.80;4.72;;;14.00;99.90;;;;;;4991802;28;20086;-73
2022/07/01 02:37:10;;;;;;;9.57;5.70;;;14.00;99.90;;;;;;5008573;28;20038;-73
2022/07/01 02:39:36;;;;;;;13.60;8.55;;;14.00;99.90;;;;;;5027275;28;20144;-73
2022/07/01 02:44:46;;;;;;;18.65;12.95;;;14.00;99.90;;;;;;5027234;28;20191;-73
2022/07/01 02:47:11;;;;;;;27.10;16.33;;;14.00;99.90;;;;;;5024624;28;20064;-73
2022/07/01 02:49:39;;;;;;;25.67;17.13;;;14.00;99.90;;;;;;5010596;28;20033;-73
2022/07/01 02:52:05;;;;;;;31.25;19.15;;;14.00;99.90;;;;;;5011653;28;20390;-73
2022/07/01 02:54:30;;;;;;;32.40;20.00;;;14.00;99.90;;;;;;4979580;28;20087;-73
2022/07/01 02:56:56;;;;;;;35.92;22.73;;;14.00;99.90;;;;;;5007304;28;20045;-73
2022/07/01 02:59:22;;;;;;;35.63;22.50;;;14.10;99.90;;;;;;5023664;28;20044;-73
2022/07/01 03:01:47;;;;;;;41.35;23.27;;;14.00;99.90;;;;;;5008844;28;20071;-73
2022/07/01 03:04:13;;;;;;;36.70;22.65;;;14.10;99.90;;;;;;5025164;28;20041;-73
2022/07/01 03:06:40;;;;;;;39.55;22.77;;;14.10;99.90;;;;;;5009368;28;20541;-74
2022/07/01 03:09:06;;;;;;;35.55;22.67;;;14.10;99.90;;;;;;4997634;28;20114;-74
2022/07/01 03:11:34;;;;;;;42.70;23.73;;;14.10;99.90;;;;;;5002028;28;20407;-74
2022/07/01 03:13:59;;;;;;;36.50;21.05;;;14.00;99.90;;;;;;5022561;28;20404;-74
2022/07/01 03:16:25;;;;;;;39.47;21.02;;;14.00;99.90;;;;;;5024115;28;20046;-74
2022/07/01 03:18:51;;;;;;;38.38;21.45;;;14.00;99.90;;;;;;4984868;28;20052;-74
2022/07/01 03:21:17;;;;;;;39.72;21.42;;;14.00;99.90;;;;;;5005016;28;20050;-74
2022/07/01 03:23:42;;;;;;;37.95;20.52;;;14.00;99.90;;;;;;5008549;28;20041;-75
2022/07/01 03:26:08;;;;;;;33.88;21.52;;;14.00;99.90;;;;;;5010690;28;20038;-74
2022/07/01 03:28:34;;;;;;;31.90;19.90;;;14.00;99.90;;;;;;4992947;28;20506;-73
2022/07/01 03:31:00;;;;;;;31.95;20.27;;;14.00;99.90;;;;;;5024929;28;20038;-74
2022/07/01 03:33:27;;;;;;;31.90;19.80;;;14.00;99.90;;;;;;5014294;28;20042;-74
2022/07/01 03:35:52;;;;;;;32.75;18.88;;;13.90;99.90;;;;;;5009152;28;20042;-74
2022/07/01 03:38:18;;;;;;;34.17;19.85;;;13.90;99.90;;;;;;5025724;28;20056;-74
2022/07/01 03:40:44;;;;;;;30.10;17.92;;;13.90;99.90;;;;;;5010289;28;20438;-73
2022/07/01 03:43:10;;;;;;;30.42;18.15;;;13.90;99.90;;;;;;5026042;28;20095;-73
2022/07/01 03:45:35;;;;;;;31.35;19.13;;;13.90;99.90;;;;;;5006954;28;20116;-73
2022/07/01 03:48:04;;;;;;;26.67;17.67;;;13.90;99.90;;;;;;4993306;28;20479;-73
2022/07/01 03:50:30;;;;;;;27.42;17.88;;;13.90;99.90;;;;;;5021253;28;20119;-73
2022/07/01 03:55:40;;;;;;;29.33;18.67;;;13.90;99.90;;;;;;5027404;28;20049;-73
2022/07/01 03:58:06;;;;;;;35.80;19.90;;;13.90;99.90;;;;;;4993606;28;20041;-74
2022/07/01 04:00:37;;;;;;;27.90;17.50;;;13.90;99.90;;;;;;5026363;28;20087;-73
2022/07/01 04:03:04;;;;;;;27.92;17.85;;;13.90;99.90;;;;;;5039038;28;20092;-73
2022/07/01 04:05:34;;;;;;;27.92;17.80;;;13.80;99.90;;;;;;5034508;28;20041;-73
2022/07/01 04:08:02;;;;;;;32.80;19.38;;;13.80;99.90;;;;;;5027317;28;20064;-73
2022/07/01 04:10:31;;;;;;;35.20;19.17;;;13.80;99.90;;;;;;5021104;28;20112;-74
2022/07/01 04:12:57;;;;;;;33.97;19.15;;;13.80;99.90;;;;;;5025523;28;20033;-74
2022/07/01 04:15:22;;;;;;;34.65;19.00;;;13.80;99.90;;;;;;5028339;28;20351;-73
2022/07/01 04:17:49;;;;;;;36.88;21.70;;;13.80;99.90;;;;;;5012348;28;20042;-73
2022/07/01 04:20:15;;;;;;;36.83;22.05;;;13.80;99.90;;;;;;5029116;28;20124;-73
2022/07/01 04:22:41;;;;;;;38.45;22.10;;;13.80;99.90;;;;;;5004829;28;20087;-74
2022/07/01 04:25:07;;;;;;;34.35;21.63;;;13.70;99.90;;;;;;5013074;28;20486;-74
2022/07/01 04:27:33;;;;;;;37.70;21.00;;;13.70;99.90;;;;;;4990282;28;20098;-73
2022/07/01 04:29:59;;;;;;;49.60;24.05;;;13.70;99.90;;;;;;5012376;28;20052;-74
2022/07/01 04:32:25;;;;;;;42.53;23.38;;;13.70;99.90;;;;;;5010257;28;20030;-74
2022/07/01 04:34:51;;;;;;;45.47;24.65;;;13.70;99.90;;;;;;5011953;28;20141;-73
2022/07/01 04:37:17;;;;;;;48.83;24.80;;;13.70;99.90;;;;;;5011067;28;20041;-74
2022/07/01 04:39:42;;;;;;;44.50;25.35;;;13.70;99.90;;;;;;5012768;28;20058;-74
2022/07/01 04:42:08;;;;;;;41.05;24.35;;;13.70;99.90;;;;;;5005503;28;20499;-75
2022/07/01 04:44:36;;;;;;;42.60;23.00;;;13.70;99.90;;;;;;5012014;28;20113;-73
2022/07/01 04:47:03;;;;;;;53.65;27.17;;;13.70;99.90;;;;;;5029295;28;21119;-74
2022/07/01 04:49:30;;;;;;;50.90;27.85;;;13.60;99.90;;;;;;5028533;28;20395;-74
2022/07/01 04:51:56;;;;;;;48.88;26.27;;;13.70;99.90;;;;;;5038408;28;20102;-73
2022/07/01 04:54:23;;;;;;;56.35;27.05;;;13.70;99.90;;;;;;5029416;28;20499;-74
2022/07/01 04:56:49;;;;;;;55.50;28.30;;;13.60;99.90;;;;;;5033459;28;20049;-73
2022/07/01 04:59:15;;;;;;;52.20;27.52;;;13.60;99.90;;;;;;5019877;28;20037;-74
2022/07/01 05:01:42;;;;;;;53.00;27.95;;;13.70;99.90;;;;;;5023396;28;20527;-74
2022/07/01 05:04:08;;;;;;;52.38;27.15;;;13.60;99.90;;;;;;4996463;28;20045;-74
2022/07/01 05:06:34;;;;;;;52.10;27.65;;;13.70;99.90;;;;;;5012776;28;20041;-74
2022/07/01 05:09:00;;;;;;;53.65;28.98;;;13.60;99.90;;;;;;4992200;28;20033;-74
2022/07/01 05:11:26;;;;;;;46.58;27.10;;;13.70;99.90;;;;;;5029560;28;20040;-75
2022/07/01 05:13:52;;;;;;;49.70;27.77;;;13.70;99.90;;;;;;5029359;28;20046;-74
2022/07/01 05:16:18;;;;;;;53.58;27.23;;;13.60;99.90;;;;;;5034207;28;20046;-75
2022/07/01 05:24:13;;;;;;;45.28;26.48;;;13.70;99.90;;;;;;5014690;28;20049;-74
2022/07/01 05:26:39;;;;;;;61.83;30.02;;;13.70;99.90;;;;;;5013533;28;20038;-74
2022/07/01 05:29:05;;;;;;;53.20;28.80;;;13.70;99.90;;;;;;5013448;28;20049;-74
2022/07/01 05:31:31;;;;;;;51.33;28.33;;;13.70;99.90;;;;;;5023747;28;20040;-74
2022/07/01 05:33:56;;;;;;;51.88;29.88;;;13.70;99.90;;;;;;5000039;28;20038;-74
2022/07/01 05:36:22;;;;;;;50.08;27.50;;;13.70;99.90;;;;;;4994470;28;20446;-74
2022/07/01 05:38:48;;;;;;;48.78;28.35;;;13.70;99.90;;;;;;4993922;28;20801;-74
2022/07/01 05:41:14;;;;;;;53.72;29.73;;;13.70;99.90;;;;;;5018590;28;20049;-74
2022/07/01 05:43:39;;;;;;;50.88;28.13;;;13.80;99.90;;;;;;5031107;28;20107;-74
2022/07/01 05:46:05;;;;;;;53.58;28.48;;;13.80;99.90;;;;;;5025022;28;20442;-74
2022/07/01 05:48:31;;;;;;;54.33;28.88;;;13.90;99.90;;;;;;5042255;28;20037;-74
2022/07/01 05:50:57;;;;;;;57.65;31.80;;;13.90;99.90;;;;;;5028177;28;20072;-74
2022/07/01 05:53:22;;;;;;;49.80;29.65;;;13.90;99.90;;;;;;5010360;28;20047;-74
2022/07/01 05:55:48;;;;;;;50.80;28.83;;;14.00;99.90;;;;;;5013832;28;20521;-74
2022/07/01 05:58:14;;;;;;;50.22;28.80;;;14.00;99.90;;;;;;5017137;28;20080;-73
2022/07/01 06:00:43;;;;;;;41.28;28.08;;;14.00;99.90;;;;;;5000045;28;20545;-74
2022/07/01 06:03:11;;;;;;;47.28;28.88;;;14.00;99.90;;;;;;5023799;28;20056;-74
2022/07/01 06:05:37;;;;;;;49.33;30.08;;;14.00;99.90;;;;;;5016846;28;20440;-74
2022/07/01 06:08:04;;;;;;;46.22;27.85;;;14.00;99.90;;;;;;5017714;28;20043;-74
2022/07/01 06:10:30;;;;;;;51.00;29.58;;;14.00;99.90;;;;;;5012295;28;20073;-74
2022/07/01 06:12:56;;;;;;;45.25;28.33;;;14.10;99.90;;;;;;5027589;28;20052;-74
2022/07/01 06:15:21;;;;;;;43.95;28.48;;;14.10;99.90;;;;;;5014931;28;20089;-74
2022/07/01 06:17:49;;;;;;;45.05;28.55;;;14.10;99.90;;;;;;5008581;28;20065;-73
2022/07/01 06:20:15;;;;;;;45.38;28.88;;;14.10;99.90;;;;;;5010537;28;20132;-73
2022/07/01 06:22:41;;;;;;;44.35;28.08;;;14.10;99.90;;;;;;5020170;28;20033;-74
2022/07/01 06:25:08;;;;;;;42.75;27.35;;;14.10;99.90;;;;;;5019462;28;20036;-74
2022/07/01 06:27:45;;;;;;;42.70;28.10;;;14.10;99.90;;;;;;5009590;28;20033;-74
2022/07/01 06:30:13;;;;;;;41.72;26.27;;;14.10;99.90;;;;;;5040571;28;20041;-73
2022/07/01 06:32:38;;;;;;;37.55;25.98;;;14.20;99.90;;;;;;5020360;28;20037;-74
2022/07/01 06:35:05;;;;;;;43.25;27.55;;;14.20;99.90;;;;;;4984449;28;20030;-74
2022/07/01 06:37:35;;;;;;;43.35;26.05;;;14.20;99.90;;;;;;5008544;28;20441;-73
2022/07/01 06:40:03;;;;;;;38.60;26.15;;;14.30;99.90;;;;;;5007065;28;20053;-74
2022/07/01 06:42:28;;;;;;;41.45;25.75;;;14.30;99.90;;;;;;4979668;28;20079;-74
2022/07/01 06:44:54;;;;;;;36.38;25.17;;;14.40;99.90;;;;;;5017820;28;20080;-74
2022/07/01 06:47:20;;;;;;;35.75;24.88;;;14.40;99.90;;;;;;5026190;28;20521;-74
2022/07/01 06:49:45;;;;;;;40.22;26.33;;;14.40;99.90;;;;;;4995524;28;20098;-74
2022/07/01 06:52:11;;;;;;;39.15;26.05;;;14.50;99.90;;;;;;5028090;28;20120;-73
2022/07/01 06:54:37;;;;;;;38.83;25.65;;;14.50;99.90;;;;;;5020121;28;20492;-74
2022/07/01 06:57:04;;;;;;;39.03;25.15;;;14.50;99.90;;;;;;5019243;28;20063;-73
2022/07/01 06:59:30;;;;;;;34.75;25.45;;;14.60;99.90;;;;;;5011003;28;20530;-74
2022/07/01 07:01:56;;;;;;;39.17;26.38;;;14.60;99.90;;;;;;5039745;28;20062;-74
2022/07/01 07:04:21;;;;;;;37.47;24.85;;;14.60;99.90;;;;;;4995058;28;20041;-74
2022/07/01 07:06:47;;;;;;;39.05;25.90;;;14.60;99.90;;;;;;5028176;28;20037;-74
2022/07/01 07:09:13;;;;;;;36.67;24.70;;;14.70;99.90;;;;;;5007665;28;20423;-74
2022/07/01 07:11:39;;;;;;;36.38;23.88;;;14.60;99.90;;;;;;4979444;28;20142;-73
2022/07/01 07:14:04;;;;;;;34.45;24.83;;;14.60;99.90;;;;;;5018058;28;20348;-75
2022/07/01 07:16:30;;;;;;;41.97;25.17;;;14.60;99.90;;;;;;5009431;28;20048;-74
2022/07/01 07:18:56;;;;;;;39.00;25.73;;;14.60;99.90;;;;;;5023264;28;20048;-75
2022/07/01 07:21:22;;;;;;;36.13;24.42;;;14.60;99.90;;;;;;4995476;28;20053;-74
2022/07/01 07:23:47;;;;;;;35.03;24.25;;;14.60;99.90;;;;;;5004540;28;20045;-74
2022/07/01 07:26:13;;;;;;;38.58;26.02;;;14.50;99.90;;;;;;5000571;28;20045;-74
2022/07/01 07:28:39;;;;;;;39.10;25.38;;;14.50;99.90;;;;;;5029042;28;20487;-76
2022/07/01 07:31:04;;;;;;;34.60;24.17;;;14.50;99.90;;;;;;4996457;28;20063;-75
2022/07/01 07:33:30;;;;;;;35.17;25.98;;;14.40;99.90;;;;;;5008760;28;20041;-76
2022/07/01 07:35:56;;;;;;;36.13;24.33;;;14.40;99.90;;;;;;5031646;28;20045;-75
2022/07/01 07:38:22;;;;;;;38.83;25.27;;;14.50;99.90;;;;;;5011709;28;20431;-75
2022/07/01 07:40:47;;;;;;;40.40;27.00;;;14.50;99.90;;;;;;4996733;28;20049;-75
2022/07/01 07:43:13;;;;;;;40.25;27.75;;;14.50;99.90;;;;;;5003820;28;20128;-75
2022/07/01 07:45:39;;;;;;;37.22;25.08;;;14.60;99.90;;;;;;5009498;28;20530;-75
2022/07/01 07:48:06;;;;;;;35.67;24.75;;;14.60;99.90;;;;;;5029492;28;20171;-76
2022/07/01 07:50:32;;;;;;;37.72;25.92;;;14.70;99.90;;;;;;4991162;28;20054;-75
2022/07/01 07:52:58;;;;;;;38.20;25.77;;;14.70;99.90;;;;;;5009554;28;20133;-75
2022/07/01 07:55:24;;;;;;;32.88;24.05;;;14.90;99.90;;;;;;5012142;28;20489;-76
2022/07/01 07:57:50;;;;;;;36.15;24.45;;;14.90;99.90;;;;;;5028880;28;20042;-75
2022/07/01 08:00:16;;;;;;;32.63;22.05;;;14.90;99.90;;;;;;5012351;28;20050;-73
2022/07/01 08:02:43;;;;;;;32.67;24.05;;;14.90;99.90;;;;;;5012330;28;20129;-76
2022/07/01 08:05:09;;;;;;;31.88;22.50;;;15.00;99.90;;;;;;5005099;28;20042;-76
2022/07/01 08:07:40;;;;;;;33.58;22.85;;;14.90;99.90;;;;;;5013003;28;20376;-76
2022/07/01 08:10:09;;;;;;;36.08;21.38;;;15.00;99.90;;;;;;5012274;28;20545;-75
2022/07/01 08:12:35;;;;;;;35.10;22.20;;;14.90;99.90;;;;;;5011861;28;20042;-76
2022/07/01 08:15:01;;;;;;;31.45;22.35;;;15.00;99.90;;;;;;5011995;28;20038;-75
2022/07/01 08:17:27;;;;;;;39.13;23.13;;;15.10;99.90;;;;;;5013140;28;20551;-77
2022/07/01 08:19:52;;;;;;;33.40;22.27;;;15.20;99.90;;;;;;4997305;28;20049;-76
2022/07/01 08:22:19;;;;;;;30.52;22.33;;;15.30;99.90;;;;;;4995626;28;20495;-76
2022/07/01 08:24:45;;;;;;;27.90;19.13;;;15.40;99.90;;;;;;5005084;28;20507;-75
2022/07/01 08:27:12;;;;;;;31.45;21.20;;;15.40;99.90;;;;;;4998479;28;20073;-76
2022/07/01 08:29:38;;;;;;;30.08;21.45;;;15.50;99.90;;;;;;5001429;28;20260;-75
2022/07/01 08:32:04;;;;;;;29.60;20.70;;;15.60;99.90;;;;;;5013353;28;20702;-76
2022/07/01 08:34:30;;;;;;;36.30;22.30;;;15.70;99.90;;;;;;5029418;28;20038;-73
2022/07/01 08:36:56;;;;;;;27.83;19.63;;;15.80;99.90;;;;;;5025235;28;20052;-75
2022/07/01 08:39:22;;;;;;;29.67;20.35;;;16.00;99.90;;;;;;5011773;28;20089;-76
2022/07/01 08:41:48;;;;;;;31.33;19.75;;;16.20;99.90;;;;;;5019576;28;20052;-75
2022/07/01 08:44:13;;;;;;;28.10;18.60;;;16.40;99.90;;;;;;5013762;28;20048;-74
2022/07/01 08:46:40;;;;;;;26.17;17.58;;;16.60;99.90;;;;;;4998956;28;20370;-76
2022/07/01 08:49:06;;;;;;;24.90;18.20;;;16.80;99.90;;;;;;5005286;28;20116;-76
2022/07/01 08:51:32;;;;;;;27.08;19.08;;;16.90;99.90;;;;;;5015052;28;20048;-76
2022/07/01 08:53:58;;;;;;;26.58;17.38;;;17.00;99.90;;;;;;5008743;28;20038;-76
2022/07/01 08:56:41;;;;;;;24.20;16.67;;;17.00;99.90;;;;;;5014660;28;20492;-75
2022/07/01 08:59:09;;;;;;;25.45;16.80;;;17.10;99.90;;;;;;5009937;28;20044;-75
2022/07/01 09:01:35;;;;;;;22.02;15.90;;;17.20;99.90;;;;;;5031195;28;20061;-75
2022/07/01 09:04:18;;;;;;;20.40;13.82;;;17.40;99.90;;;;;;5014344;28;20077;-75
2022/07/01 09:06:45;;;;;;;17.00;12.25;;;17.50;99.90;;;;;;5019377;28;20044;-77
2022/07/01 09:09:20;;;;;;;19.58;14.48;;;17.50;99.90;;;;;;5019517;28;20560;-76
2022/07/01 09:11:53;;;;;;;18.77;13.50;;;17.30;99.90;;;;;;5014800;28;20388;-75
2022/07/01 09:14:23;;;;;;;17.27;11.57;;;17.30;99.90;;;;;;5020349;28;20033;-75
2022/07/01 09:16:51;;;;;;;21.13;13.95;;;17.20;99.90;;;;;;5010548;28;20042;-75
2022/07/01 09:19:19;;;;;;;16.23;12.52;;;17.10;99.90;;;;;;5014240;28;20081;-75
2022/07/01 09:21:56;;;;;;;15.90;11.70;;;17.10;99.90;;;;;;5016698;28;20119;-76
2022/07/01 09:24:27;;;;;;;16.20;11.77;;;17.20;99.90;;;;;;5023082;28;20119;-76
2022/07/01 09:27:01;;;;;;;12.85;9.07;;;17.30;99.90;;;;;;5010894;28;20518;-75
2022/07/01 09:29:39;;;;;;;13.88;9.80;;;17.30;99.90;;;;;;5013432;28;20033;-75
2022/07/01 09:32:07;;;;;;;14.95;10.40;;;17.30;99.90;;;;;;5017226;28;20033;-75
2022/07/01 09:34:43;;;;;;;13.13;9.10;;;17.30;99.90;;;;;;5019544;28;20502;-75
2022/07/01 09:37:14;;;;;;;13.30;9.98;;;17.20;99.90;;;;;;5039688;28;20042;-75
2022/07/01 09:39:48;;;;;;;15.70;9.85;;;17.20;99.90;;;;;;5046572;28;20165;-75
2022/07/01 09:42:19;;;;;;;15.98;10.48;;;17.10;99.90;;;;;;5028145;28;20088;-75
2022/07/01 09:45:11;;;;;;;14.52;10.27;;;17.10;99.90;;;;;;5018870;28;20037;-75
2022/07/01 09:47:40;;;;;;;16.07;9.63;;;17.10;99.90;;;;;;5011275;28;20045;-75
2022/07/01 09:50:07;;;;;;;14.88;9.93;;;17.10;99.90;;;;;;5046611;28;20041;-76
2022/07/01 09:52:33;;;;;;;20.25;8.98;;;17.10;99.90;;;;;;5018968;28;20505;-75
2022/07/01 09:55:00;;;;;;;16.38;9.30;;;17.10;99.90;;;;;;5037156;28;20044;-76
2022/07/01 09:57:26;;;;;;;14.88;10.00;;;17.20;99.90;;;;;;5009282;28;20498;-75
2022/07/01 09:59:52;;;;;;;14.90;8.80;;;17.20;99.90;;;;;;5004929;28;20048;-76
2022/07/01 10:02:19;;;;;;;15.85;9.07;;;17.20;99.90;;;;;;5023401;28;20041;-75
2022/07/01 10:05:01;;;;;;;14.73;8.80;;;17.30;99.90;;;;;;5029731;28;20034;-75
2022/07/01 10:07:44;;;;;;;14.52;8.52;;;17.30;99.90;;;;;;5040803;28;20107;-76
2022/07/01 10:10:22;;;;;;;16.20;9.82;;;17.20;99.90;;;;;;5034947;28;20052;-75
2022/07/01 10:12:53;;;;;;;16.60;8.63;;;17.20;99.90;;;;;;5019963;28;20036;-75
2022/07/01 10:15:20;;;;;;;13.38;8.43;;;17.20;99.90;;;;;;5029371;28;20495;-76
2022/07/01 10:17:48;;;;;;;11.43;7.32;;;17.20;99.90;;;;;;5026673;28;20045;-76
2022/07/01 10:20:32;;;;;;;7.50;6.13;;;17.50;99.90;;;;;;5036848;28;20042;-76
2022/07/01 10:23:04;;;;;;;10.73;6.65;;;17.80;99.90;;;;;;5017293;28;20125;-76
2022/07/01 10:25:31;;;;;;;10.30;5.68;;;18.00;99.90;;;;;;5013131;28;20507;-76
2022/07/01 10:28:23;;;;;;;11.57;6.68;;;18.10;99.90;;;;;;5008048;28;20029;-76
2022/07/01 10:31:08;;;;;;;12.65;6.85;;;18.30;99.90;;;;;;5032979;28;20044;-76
2022/07/01 10:33:53;;;;;;;12.23;7.75;;;18.50;99.90;;;;;;5025354;28;20277;-77
2022/07/01 10:36:35;;;;;;;11.38;7.60;;;18.70;99.90;;;;;;5029110;28;20518;-76
2022/07/01 10:39:07;;;;;;;;;;;19.00;99.90;;;;;;5034459;28;20546;-77
2022/07/01 10:41:52;;;;;;;10.40;7.35;;;19.00;99.90;;;;;;5024471;28;19953;-77
2022/07/01 10:44:18;;;;;;;12.15;7.32;;;19.20;99.90;;;;;;5015922;28;20042;-77
2022/07/01 10:47:05;;;;;;;8.63;6.47;;;19.40;99.90;;;;;;5029060;28;20068;-76
2022/07/01 10:49:38;;;;;;;11.32;6.47;;;19.40;99.90;;;;;;5030519;28;20038;-77
2022/07/01 10:52:09;;;;;;;6.55;4.72;;;19.20;99.90;;;;;;5018390;28;20053;-78
2022/07/01 10:54:41;;;;;;;6.10;4.10;;;19.10;99.90;;;;;;5028250;28;20039;-77
2022/07/01 10:57:19;;;;;;;;;;;19.00;99.90;;;;;;5019455;28;20542;-76
2022/07/01 11:00:00;;;;;;;8.65;4.78;;;18.90;99.90;;;;;;5022272;28;19916;-77
2022/07/01 11:02:31;;;;;;;8.10;5.05;;;19.00;99.90;;;;;;5019823;28;20064;-77
2022/07/01 11:05:01;;;;;;;7.88;4.38;;;19.20;99.90;;;;;;5018763;28;20042;-76
2022/07/01 11:07:29;;;;;;;7.55;4.63;;;19.60;99.90;;;;;;5030346;28;20045;-78
2022/07/01 11:09:55;;;;;;;7.80;5.20;;;19.80;99.90;;;;;;5021902;28;20042;-77
2022/07/01 11:12:25;;;;;;;6.53;4.50;;;19.80;99.90;;;;;;5032203;28;20040;-77
2022/07/01 11:14:52;;;;;;;7.30;4.65;;;19.90;99.90;;;;;;5014173;28;20044;-78
2022/07/01 11:17:18;;;;;;;10.95;4.57;;;19.90;99.90;;;;;;5026448;28;20052;-77
2022/07/01 11:19:49;;;;;;;7.55;4.10;;;19.90;99.90;;;;;;5036398;28;20121;-77
2022/07/01 11:22:22;;;;;;;6.55;3.97;;;19.90;99.90;;;;;;5017396;28;20760;-77
2022/07/01 11:24:59;;;;;;;5.22;3.67;;;20.10;99.90;;;;;;5022121;28;20301;-76
2022/07/01 11:27:26;;;;;;;5.15;3.72;;;20.20;99.90;;;;;;5028460;28;20033;-77
2022/07/01 11:29:53;;;;;;;5.28;3.88;;;20.40;99.90;;;;;;5056292;28;20037;-77
2022/07/01 11:32:34;;;;;;;7.35;4.03;;;20.60;99.90;;;;;;5024718;28;20072;-76
2022/07/01 11:35:01;;;;;;;4.72;3.33;;;20.80;99.90;;;;;;5032778;28;20057;-77
2022/07/01 11:40:15;;;;;;;7.55;3.40;;;21.10;99.90;;;;;;4996740;28;1140226;-75
2022/07/01 11:42:42;;;;;;;6.43;3.63;;;21.00;99.40;;;;;;5009487;28;20048;-78
2022/07/01 11:45:08;;;;;;;4.25;2.72;;;21.00;99.90;;;;;;5008819;28;20410;-78
2022/07/01 11:47:35;;;;;;;5.30;2.75;;;21.10;99.90;;;;;;4996574;28;20546;-77
2022/07/01 11:50:01;;;;;;;5.70;3.85;;;21.20;99.90;;;;;;5025006;28;20045;-76
2022/07/01 11:52:27;;;;;;;7.78;3.60;;;21.30;99.90;;;;;;5014788;28;20069;-78
2022/07/01 11:54:59;;;;;;;4.38;3.63;;;21.40;99.90;;;;;;5003965;28;20046;-78
2022/07/01 11:57:28;;;;;;;6.72;3.75;;;21.50;98.70;;;;;;5009624;28;20037;-77
2022/07/01 11:59:55;;;;;;;4.30;3.65;;;21.50;99.50;;;;;;4992963;28;20042;-79
2022/07/01 12:02:22;;;;;;;7.68;3.55;;;21.50;99.80;;;;;;5042357;28;20045;-78
2022/07/01 12:04:50;;;;;;;7.32;3.30;;;21.50;99.80;;;;;;5014766;28;20041;-77
2022/07/01 12:07:19;;;;;;;7.05;4.05;;;21.60;99.90;;;;;;5004277;28;20084;-79
2022/07/01 12:09:45;;;;;;;6.50;3.90;;;21.20;98.60;;;;;;5013032;28;20048;-81
2022/07/01 12:12:19;;;;;;;5.63;3.38;;;21.00;98.70;;;;;;5032612;28;20042;-75
2022/07/01 12:14:53;;;;;;;7.18;3.30;;;20.90;99.30;;;;;;5026929;28;20038;-76
2022/07/01 12:17:20;;;;;;;7.70;3.67;;;20.80;99.40;;;;;;5008799;28;20100;-76
2022/07/01 12:19:47;;;;;;;7.75;3.80;;;20.70;99.70;;;;;;5007509;28;20050;-75
2022/07/01 12:22:23;;;;;;;5.38;2.95;;;20.70;99.80;;;;;;5012237;28;20053;-76
2022/07/01 12:24:49;;;;;;;5.85;3.30;;;20.60;99.00;;;;;;5027636;28;20046;-76
2022/07/01 12:27:15;;;;;;;6.93;3.13;;;20.50;99.50;;;;;;5010902;28;20041;-74
2022/07/01 12:29:48;;;;;;;7.00;3.40;;;20.40;99.10;;;;;;5030361;28;20042;-78
2022/07/01 12:32:17;;;;;;;8.48;3.30;;;20.60;99.30;;;;;;5030186;28;20436;-78
2022/07/01 12:34:54;;;;;;;7.70;2.97;;;20.60;99.40;;;;;;5025687;28;20041;-77
2022/07/01 12:37:37;;;;;;;4.70;2.72;;;20.40;98.40;;;;;;5019195;28;20041;-79
2022/07/01 12:40:05;;;;;;;4.60;2.60;;;20.20;99.20;;;;;;5019414;28;20092;-78
2022/07/01 12:42:39;;;;;;;5.45;2.35;;;19.90;99.90;;;;;;5012080;28;20407;-78
2022/07/01 12:45:07;;;;;;;4.53;2.35;;;19.80;99.90;;;;;;5035265;28;20056;-78
2022/07/01 12:47:42;;;;;;;4.30;2.15;;;20.00;99.90;;;;;;5017215;28;20034;-78
2022/07/01 12:50:19;;;;;;;6.40;1.98;;;20.30;99.70;;;;;;5015232;28;20041;-78
2022/07/01 12:53:04;;;;;;;5.32;2.30;;;20.50;99.50;;;;;;5026196;28;20037;-78